Aeroporto :
LOGIN :

Iscrizione | Disclaimer

   EN    FR    IT 

 










Sommario :    VFR   VFR Marginale   IFR   IFR Intensivo   IFR Molto Intensivo
Visibilità : 
Base nubi : 
>= 8 km
>= 3000ft
5 / 8 km
1000 / 3000 ft
1500m / 5 km
500 / 1000 ft
800 / 1500m
200 / 500 ft
< 800m
< 200 ft
Simboli :   Temporali  Nebbia  Neve Forte  Precipitazioni Forti  Vento > 20 kt
SIGMETs :   Varie  Temporali  Ghiacco  Turbolenza  Onda orograficha  Ceneri Vulcaniche







- Altitudine del aeroporto : 622 ft
- Codice IATA : BRS
- Carte del aeroporto


EGGD - Bristol Int.

ULTIMO METAR :
  • 260120Z AUTO 18007KT 9999 BKN006 08/07 Q1005

METARs OBSOLETI :
  • 260050Z AUTO 16006KT 9999 BKN005 BKN014 07/06 Q1005
  • 260020Z AUTO 19005KT 9999 FEW014 08/06 Q1004
  • 252350Z AUTO 19007KT 9999 SCT006 08/06 Q1004
  • 252320Z AUTO 18007KT 9999 BKN006 08/07 Q1004
  • 252250Z AUTO 19007KT 9999 SCT006 08/07 Q1004

TAF TAF EGGD
Valido dal 26 a 00 ore il 27 a 00 ore UTC


252310Z 2600/2624 17008KT 9999 FEW030
TEMPO 2600/2603 BKN006
PROB40
TEMPO 2608/2614 6000 RA BKN008
BECMG 2610/2613 25012KT
PROB40
TEMPO 2614/2618 8000 -RA BKN012
BECMG 2618/2621 19020G30KT
TEMPO 2618/2624 7000 RA SHRA BKN010
PROB40
TEMPO 2620/2624 4000 RADZ BKN006
BECMG 2621/2624 23020G30KT
ATIS : +44 1275 473 666
Nessun NOTAM noto per questo aeroporto.



MetMap, La meteo Aeronautica in un colpo d'occhio ! - Copyright ORBIFLY Dicembre 2007 - Disclaimer

ORBIFLY MET'MAP TEAM :

Programmazione e sviluppo : Alexandra Zaïnal
Concezione e sviluppo : Baudouin d'Aumeries
Co-Programmazione e sviluppo : Marc-Olivier Méhu
Supporto tecnico e logistico : Manuel Goepfert
Aiuto per la traduzione : Arnaldo La Scala

Contatto : metmap@orbifly.com




FONTI E CREDITI :

   NOAA